createdAt,value
2023-05-01T04:39:51.115Z,50.875347
2023-05-01T04:40:51.087Z,50.875320
2023-05-01T04:41:51.082Z,50.875374
2023-05-01T04:42:51.071Z,50.875507
2023-05-01T04:43:51.056Z,50.875458
2023-05-01T04:44:51.063Z,50.875343
2023-05-01T04:45:51.049Z,50.875355
2023-05-01T04:46:51.070Z,50.875370
2023-05-01T04:47:51.040Z,50.875366
2023-05-01T04:48:51.010Z,50.875404
2023-05-01T04:49:50.992Z,50.875443
2023-05-01T04:50:51.994Z,50.875164
2023-05-01T04:51:50.983Z,50.875301
2023-05-01T04:52:50.970Z,50.875252
2023-05-01T04:53:50.969Z,50.875252
2023-05-01T04:54:50.961Z,50.874905
2023-05-01T04:55:50.957Z,50.874603
2023-05-01T04:56:50.936Z,50.874611
2023-05-01T04:57:50.922Z,50.874668
2023-05-01T04:58:50.916Z,50.874832
2023-05-01T04:59:50.919Z,50.874752
2023-05-01T05:00:50.898Z,50.874752
2023-05-01T05:01:50.905Z,50.874752
2023-05-01T05:02:50.925Z,50.874752
2023-05-01T05:03:51.077Z,50.874752
2023-05-01T05:04:51.033Z,50.875069
2023-05-01T05:05:50.856Z,50.875633
2023-05-01T05:06:50.853Z,50.875320
2023-05-01T05:07:50.823Z,50.875278
2023-05-01T05:08:50.820Z,50.875431
2023-05-01T05:09:50.820Z,50.875431
2023-05-01T05:10:50.798Z,50.875431
2023-05-01T05:11:50.789Z,50.875431
2023-05-01T05:12:50.782Z,50.875431
2023-05-01T05:13:50.767Z,50.875431
2023-05-01T05:14:50.755Z,50.875431
2023-05-01T05:15:50.754Z,50.875431
2023-05-01T05:16:50.870Z,50.875431
2023-05-01T05:17:50.780Z,50.875431
2023-05-01T05:18:50.722Z,50.875431
2023-05-01T05:19:50.707Z,50.875431
2023-05-01T05:20:50.734Z,50.875431
2023-05-01T05:21:50.685Z,50.875431
2023-05-01T05:22:50.694Z,50.875431
2023-05-01T05:23:50.676Z,50.875431
2023-05-01T05:24:50.654Z,50.875431
2023-05-01T05:25:50.659Z,50.875431
2023-05-01T05:26:50.632Z,50.875431
2023-05-01T05:27:50.628Z,50.875431
2023-05-01T05:28:50.621Z,50.875431
2023-05-01T05:29:50.615Z,50.875431
2023-05-01T05:30:50.608Z,50.875431
2023-05-01T05:31:50.649Z,50.875431
2023-05-01T05:32:50.597Z,50.875431
2023-05-01T05:33:50.574Z,50.875431
2023-05-01T05:34:50.556Z,50.875431
2023-05-01T05:35:50.559Z,50.875431
2023-05-01T05:36:50.545Z,50.875431
2023-05-01T05:37:50.527Z,50.875431
2023-05-01T05:38:50.520Z,50.875431
2023-05-01T05:39:50.516Z,50.875431
2023-05-01T05:40:50.524Z,50.875431
2023-05-01T05:41:50.497Z,50.875431
2023-05-01T05:42:50.482Z,50.875431
2023-05-01T05:43:50.475Z,50.875431
2023-05-01T05:44:50.466Z,50.875431
2023-05-01T05:45:50.504Z,50.875431
2023-05-01T05:46:50.441Z,50.875431
2023-05-01T05:47:50.504Z,50.875431
2023-05-01T05:48:50.431Z,50.875431
2023-05-01T05:49:50.475Z,50.875431
2023-05-01T05:50:50.408Z,50.875431
2023-05-01T05:51:50.395Z,50.875431
2023-05-01T05:52:50.386Z,50.875431
2023-05-01T05:53:50.378Z,50.875431
2023-05-01T05:54:50.365Z,50.875431
2023-05-01T05:55:50.369Z,50.875431
2023-05-01T05:56:50.356Z,50.875431
2023-05-01T05:57:50.332Z,50.875431
2023-05-01T05:58:50.346Z,50.875431
2023-05-01T05:59:50.313Z,50.875431
2023-05-01T06:00:50.336Z,50.875431
2023-05-01T06:01:50.305Z,50.875431
2023-05-01T06:02:50.324Z,50.875431
2023-05-01T06:03:50.299Z,50.875431
2023-05-01T06:04:50.274Z,50.875431
2023-05-01T06:05:50.279Z,50.875431
2023-05-01T06:06:50.283Z,50.875431
2023-05-01T06:07:50.231Z,50.875431
2023-05-01T06:08:50.227Z,50.875431
2023-05-01T06:09:50.241Z,50.875431
2023-05-01T06:10:50.199Z,50.875431
2023-05-01T06:11:50.280Z,50.875431
2023-05-01T06:12:59.321Z,50.875431
2023-05-01T06:13:51.188Z,50.875431
2023-05-01T06:14:50.173Z,50.875431
2023-05-01T06:15:50.240Z,50.875347
2023-05-01T06:16:50.145Z,50.875416
2023-05-01T06:17:50.224Z,50.875259
2023-05-01T06:18:50.127Z,50.875259
2023-05-01T06:19:50.282Z,50.875259
2023-05-01T06:20:50.183Z,50.875259
2023-05-01T06:21:50.170Z,50.875259
2023-05-01T06:22:50.160Z,50.875259
2023-05-01T06:23:50.116Z,50.875259
2023-05-01T06:24:50.147Z,50.875259
2023-05-01T06:25:50.101Z,50.875259
2023-05-01T06:26:50.156Z,50.875259
2023-05-01T06:27:50.139Z,50.875259
2023-05-01T06:28:50.030Z,50.875259
2023-05-01T06:29:50.032Z,50.875259
2023-05-01T06:30:50.029Z,50.875259
2023-05-01T06:31:50.187Z,50.875259
2023-05-01T06:32:50.093Z,50.875259
2023-05-01T06:33:49.985Z,50.875259
2023-05-01T06:34:49.976Z,50.875259
2023-05-01T06:35:49.985Z,50.875259
2023-05-01T06:36:49.954Z,50.875259
2023-05-01T06:37:49.945Z,50.875259
2023-05-01T06:38:49.940Z,50.875259
2023-05-01T06:39:49.922Z,50.875259
2023-05-01T06:40:49.920Z,50.875259
2023-05-01T06:41:49.903Z,50.875259
2023-05-01T06:42:49.888Z,50.875259
2023-05-01T06:44:05.127Z,50.875259
2023-05-01T09:32:15.893Z,50.875332
2023-05-01T09:33:15.850Z,50.875298
2023-05-01T09:34:15.796Z,50.875301
2023-05-01T09:35:15.814Z,50.875416
2023-05-01T09:36:15.959Z,50.875355
2023-05-01T09:37:15.789Z,50.875278
2023-05-01T09:38:15.760Z,50.875351
2023-05-01T09:39:15.769Z,50.875378
2023-05-01T09:40:15.772Z,50.875401
2023-05-01T09:41:15.760Z,50.875446
2023-05-01T09:42:15.734Z,50.875416
2023-05-01T09:43:15.704Z,50.875286
2023-05-01T09:44:15.737Z,50.875435
2023-05-01T09:45:15.700Z,50.875412
2023-05-01T09:46:15.747Z,50.875336
2023-05-01T09:47:15.673Z,50.875477
2023-05-01T09:48:15.693Z,50.875259
2023-05-01T09:49:15.648Z,50.875320
2023-05-01T09:50:15.696Z,50.875313
2023-05-01T09:51:15.623Z,50.875488
2023-05-01T09:52:15.642Z,50.875572
2023-05-01T09:53:15.612Z,50.875397
2023-05-01T09:54:15.593Z,50.875446
2023-05-01T09:55:15.626Z,50.875454
2023-05-01T09:56:15.598Z,50.875511
2023-05-01T09:57:15.629Z,50.875294
2023-05-01T09:58:15.608Z,50.875290
2023-05-01T09:59:15.608Z,50.875404
2023-05-01T10:00:15.588Z,50.875576
2023-05-01T10:01:15.590Z,50.875740
2023-05-01T10:02:15.570Z,50.875645
2023-05-01T10:03:15.620Z,50.875542
2023-05-01T10:04:15.543Z,50.875454
2023-05-01T10:05:15.541Z,50.875313
2023-05-01T10:06:15.516Z,50.875381
2023-05-01T10:07:15.522Z,50.875458
2023-05-01T10:08:15.482Z,50.875778
2023-05-01T10:09:15.553Z,50.875515
2023-05-01T10:10:15.495Z,50.875420
2023-05-01T10:11:15.476Z,50.875443
2023-05-01T10:12:15.443Z,50.875290
2023-05-01T10:13:15.429Z,50.875523
2023-05-01T10:14:15.412Z,50.875511
2023-05-01T10:15:24.484Z,50.875416
2023-05-01T10:16:17.448Z,50.875530
2023-05-01T10:17:15.442Z,50.875458
2023-05-01T10:18:15.495Z,50.875359
2023-05-01T10:19:15.378Z,50.875248
2023-05-01T10:20:15.362Z,50.875278
2023-05-01T10:21:15.379Z,50.875313
2023-05-01T10:22:15.414Z,50.875465
2023-05-01T10:23:15.378Z,50.875576
2023-05-01T10:24:15.383Z,50.875637
2023-05-01T10:25:15.336Z,50.875465
2023-05-01T10:26:15.322Z,50.875435
2023-05-01T10:27:15.326Z,50.875469
2023-05-01T10:28:15.293Z,50.875385
2023-05-01T10:29:15.307Z,50.875435
2023-05-01T10:30:15.285Z,50.875443
2023-05-01T10:31:15.309Z,50.875484
2023-05-01T10:32:15.276Z,50.875530
2023-05-01T10:33:15.308Z,50.875702
2023-05-01T10:34:15.239Z,50.875374
2023-05-01T10:35:15.346Z,50.875427
2023-05-01T10:36:15.232Z,50.875343
2023-05-01T10:37:15.231Z,50.875454
2023-05-01T10:38:15.202Z,50.875381
2023-05-01T10:39:15.195Z,50.875549
2023-05-01T10:40:15.232Z,50.875511
2023-05-01T10:41:15.168Z,50.875622
2023-05-01T10:42:15.209Z,50.875877
2023-05-01T10:43:15.181Z,50.875687
2023-05-01T10:44:15.147Z,50.875591
2023-05-01T10:45:15.114Z,50.875576
2023-05-01T10:46:15.147Z,50.875439
2023-05-01T10:47:15.121Z,50.875484
2023-05-01T10:48:15.098Z,50.875496
2023-05-01T10:49:15.111Z,50.875427
2023-05-01T10:50:15.299Z,50.875549
2023-05-01T10:51:15.082Z,50.875618
2023-05-01T10:52:15.097Z,50.875404
2023-05-01T10:53:15.095Z,50.875267
2023-05-01T10:54:15.052Z,50.875439
2023-05-01T10:55:15.054Z,50.875301
2023-05-01T10:56:15.039Z,50.875320
2023-05-01T10:57:15.064Z,50.875317
2023-05-01T10:58:15.034Z,50.875381
2023-05-01T10:59:15.033Z,50.875477
2023-05-01T11:00:15.057Z,50.875443
2023-05-01T11:01:14.995Z,50.875385
2023-05-01T11:02:15.070Z,50.875282
2023-05-01T11:03:15.011Z,50.875416
2023-05-01T11:04:14.969Z,50.875538
2023-05-01T11:05:15.068Z,50.875515
2023-05-01T11:06:15.052Z,50.875458
2023-05-01T11:07:15.047Z,50.875340
2023-05-01T11:08:14.938Z,50.875336
2023-05-01T11:09:14.940Z,50.875729
2023-05-01T11:10:14.924Z,50.875137
2023-05-01T11:11:14.909Z,50.875580
2023-05-01T11:12:14.899Z,50.875488
2023-05-01T11:13:14.876Z,50.875668
2023-05-01T11:14:14.848Z,50.875404
2023-05-01T11:15:14.863Z,50.875244
2023-05-01T11:16:14.896Z,50.875278
2023-05-01T11:17:14.858Z,50.875217
2023-05-01T11:18:14.866Z,50.875412
2023-05-01T11:19:14.802Z,50.875473
2023-05-01T11:20:14.815Z,50.875385
2023-05-01T11:21:14.772Z,50.875172
2023-05-01T11:22:14.782Z,50.875389
2023-05-01T11:23:14.927Z,50.875397
2023-05-01T11:24:14.739Z,50.875412
2023-05-01T11:25:14.754Z,50.875408
2023-05-01T11:26:14.739Z,50.875237
2023-05-01T11:27:14.738Z,50.875195
2023-05-01T11:28:14.734Z,50.875332
2023-05-01T11:29:14.713Z,50.875343
2023-05-01T11:30:14.710Z,50.875347
2023-05-01T11:31:14.717Z,50.875443
2023-05-01T11:32:14.931Z,50.875458
2023-05-01T11:33:14.716Z,50.875237
2023-05-01T11:34:14.678Z,50.875393
2023-05-01T11:35:14.692Z,50.875420
2023-05-01T11:36:14.694Z,50.875294
2023-05-01T11:37:14.617Z,50.875210
2023-05-01T11:38:14.596Z,50.875343
2023-05-01T11:39:14.578Z,50.875362
2023-05-01T11:40:14.584Z,50.875542
2023-05-01T11:41:14.583Z,50.875351
2023-05-01T11:42:14.641Z,50.875568
2023-05-01T11:43:14.621Z,50.875568
2023-05-01T11:44:14.574Z,50.875568
2023-05-01T11:45:14.560Z,50.875568
2023-05-01T11:46:14.577Z,50.875568
2023-05-01T11:47:14.544Z,50.875568
2023-05-01T11:48:14.653Z,50.875568
2023-05-01T11:49:14.522Z,50.875568
2023-05-01T11:50:14.504Z,50.875568
2023-05-01T11:51:14.497Z,50.875568
2023-05-01T11:52:14.507Z,50.875568
2023-05-01T11:53:14.511Z,50.875568
2023-05-01T11:54:15.745Z,50.875568
2023-05-01T11:55:15.459Z,50.875568
2023-05-01T11:56:25.367Z,50.875568
2023-05-01T11:57:16.453Z,50.875568
2023-05-01T11:58:14.394Z,50.875568
2023-05-01T11:59:15.440Z,50.875568
2023-05-01T12:00:14.409Z,50.875568
2023-05-01T12:01:14.391Z,50.875568
2023-05-01T12:02:14.461Z,50.875591
2023-05-01T12:03:14.695Z,50.875591
2023-05-01T12:04:14.614Z,50.875591
2023-05-01T12:05:14.382Z,50.875591
2023-05-01T12:06:14.426Z,50.875591
2023-05-01T12:07:14.352Z,50.875591
2023-05-01T12:08:14.332Z,50.875591
2023-05-01T12:09:14.314Z,50.875591
2023-05-01T12:10:14.301Z,50.875271
2023-05-01T12:11:14.269Z,50.875427
2023-05-01T12:12:15.313Z,50.875469
2023-05-01T12:13:14.316Z,50.875469
2023-05-01T12:14:14.300Z,50.875469
2023-05-01T12:15:14.310Z,50.875469
2023-05-01T12:16:14.254Z,50.875469
2023-05-01T12:17:14.326Z,50.875469
2023-05-01T12:18:15.359Z,50.875469
2023-05-01T12:19:14.217Z,50.875469
2023-05-01T12:20:14.246Z,50.875469
2023-05-01T12:21:14.224Z,50.875469
2023-05-01T12:22:14.234Z,50.875469
2023-05-01T12:23:14.196Z,50.875469
2023-05-01T12:24:14.195Z,50.875702
2023-05-01T12:25:14.185Z,50.875702
2023-05-01T12:26:14.151Z,50.875702
2023-05-01T12:27:14.185Z,50.875702
2023-05-01T12:28:14.144Z,50.875702
2023-05-01T12:29:14.125Z,50.875702
2023-05-01T12:30:14.127Z,50.875702
2023-05-01T12:31:14.131Z,50.875702
2023-05-01T12:32:14.109Z,50.875397
2023-05-01T12:33:14.087Z,50.875397
2023-05-01T12:34:14.078Z,50.875397
2023-05-01T12:35:14.120Z,50.875397
2023-05-01T12:36:14.038Z,50.875626
2023-05-01T12:37:14.042Z,50.875416
2023-05-01T12:38:14.040Z,50.875740
2023-05-01T12:39:15.023Z,50.875748
2023-05-01T12:40:14.095Z,50.875622
2023-05-01T12:41:14.043Z,50.875454
2023-05-01T12:42:14.020Z,50.875389
2023-05-01T12:43:14.005Z,50.875206
2023-05-01T12:44:13.981Z,50.875263
2023-05-01T12:45:14.990Z,50.875111
2023-05-01T12:46:14.006Z,50.875221
2023-05-01T12:47:13.956Z,50.875340
2023-05-01T12:48:13.993Z,50.875275
2023-05-01T12:49:13.927Z,50.875401
2023-05-01T12:50:13.884Z,50.875408
2023-05-01T12:51:13.919Z,50.875526
2023-05-01T12:52:13.899Z,50.875599
2023-05-01T12:53:13.887Z,50.875504
2023-05-01T12:54:13.861Z,50.875576
2023-05-01T12:55:13.876Z,50.875435
2023-05-01T12:56:13.851Z,50.875282
2023-05-01T12:57:14.877Z,50.875401
2023-05-01T12:58:13.827Z,50.875385
2023-05-01T12:59:13.835Z,50.875416
2023-05-01T13:00:13.819Z,50.875404
2023-05-01T13:01:13.851Z,50.875462
2023-05-01T13:02:13.796Z,50.875526
2023-05-01T13:03:13.884Z,50.875423
2023-05-01T13:04:13.820Z,50.875427
2023-05-01T13:05:13.754Z,50.875359
2023-05-01T13:06:13.805Z,50.875423
2023-05-01T13:07:13.775Z,50.875343
2023-05-01T13:08:13.715Z,50.875355
2023-05-01T13:09:13.709Z,50.875103
2023-05-01T13:10:13.750Z,50.875225
2023-05-01T13:11:13.756Z,50.875290
2023-05-01T13:12:13.684Z,50.875221
2023-05-01T13:13:13.661Z,50.875301
2023-05-01T13:14:14.634Z,50.875469
2023-05-01T13:15:13.624Z,50.875416
2023-05-01T13:16:13.682Z,50.875652
2023-05-01T13:17:13.655Z,50.875572
2023-05-01T13:18:13.626Z,50.875416
2023-05-01T13:19:13.635Z,50.875412
2023-05-01T13:20:13.613Z,50.875340
2023-05-01T13:21:13.607Z,50.875336
2023-05-01T13:22:13.655Z,50.875248
2023-05-01T13:23:13.580Z,50.875031
2023-05-01T13:24:13.563Z,50.875126
2023-05-01T13:25:13.564Z,50.875790
2023-05-01T13:26:13.564Z,50.876575
2023-05-01T13:27:13.703Z,50.875637
2023-05-01T13:28:13.539Z,50.875393
2023-05-01T13:29:13.557Z,50.875214
2023-05-01T13:30:13.512Z,50.875214
2023-05-01T13:31:13.629Z,50.875187
2023-05-01T13:32:13.613Z,50.875187
2023-05-01T13:33:13.593Z,50.875187
2023-05-01T13:34:13.470Z,50.875298
2023-05-01T13:35:13.485Z,50.875305
2023-05-01T13:36:24.292Z,50.875313
2023-05-01T13:37:15.426Z,50.875324
2023-05-01T13:38:13.465Z,50.875256
2023-05-01T13:39:13.412Z,50.875362
2023-05-01T13:40:13.416Z,50.875175
2023-05-01T13:41:13.422Z,50.875286
2023-05-01T13:42:13.410Z,50.875320
2023-05-01T13:43:13.398Z,50.875721
2023-05-01T13:44:13.373Z,50.875431
2023-05-01T13:45:13.345Z,50.875317
2023-05-01T13:46:13.393Z,50.875278
2023-05-01T13:47:13.368Z,50.875271
2023-05-01T13:48:13.390Z,50.875454
2023-05-01T13:49:13.313Z,50.875454
2023-05-01T13:50:13.310Z,50.875393
2023-05-01T13:51:13.327Z,50.875328
2023-05-01T13:52:13.302Z,50.875278
2023-05-01T13:53:13.324Z,50.875431
2023-05-01T13:54:13.273Z,50.875381
2023-05-01T13:55:13.298Z,50.875385
2023-05-01T13:56:13.258Z,50.875309
2023-05-01T13:57:13.255Z,50.875217
2023-05-01T13:58:13.260Z,50.875206
2023-05-01T13:59:13.232Z,50.875217
2023-05-01T14:00:47.286Z,50.874924
2023-05-01T14:01:47.423Z,50.875404
2023-05-01T14:02:46.968Z,50.875244
2023-05-01T14:03:47.612Z,50.875324
2023-05-01T14:04:13.142Z,50.875309
2023-05-01T14:05:13.124Z,50.875343
2023-05-01T14:06:13.191Z,50.875378
2023-05-01T14:07:13.127Z,50.875332
2023-05-01T14:08:13.108Z,50.875214
2023-05-01T14:09:13.096Z,50.875465
2023-05-01T14:10:13.086Z,50.875336
2023-05-01T14:11:13.136Z,50.875278
2023-05-01T14:12:13.054Z,50.875359
2023-05-01T14:13:13.057Z,50.875519
2023-05-01T14:14:13.062Z,50.875515
2023-05-01T14:15:13.077Z,50.875362
2023-05-01T14:16:13.119Z,50.875305
2023-05-01T14:17:13.123Z,50.875408
2023-05-01T14:18:13.037Z,50.875324
2023-05-01T14:19:13.012Z,50.875237
2023-05-01T14:20:12.991Z,50.875370
2023-05-01T14:21:12.995Z,50.875427
2023-05-01T14:22:12.980Z,50.875450
2023-05-01T14:23:12.967Z,50.875408
2023-05-01T14:24:12.944Z,50.875370
2023-05-01T14:25:12.967Z,50.875443
2023-05-01T14:26:12.952Z,50.875172
2023-05-01T14:27:12.947Z,50.875172
2023-05-01T14:28:12.933Z,50.875172
2023-05-01T14:29:12.906Z,50.875172
2023-05-01T14:30:12.898Z,50.875172
2023-05-01T14:31:12.939Z,50.875172
2023-05-01T14:32:12.894Z,50.875172
2023-05-01T14:33:12.982Z,50.875172
2023-05-01T14:34:12.871Z,50.875172
2023-05-01T14:35:12.869Z,50.875172
2023-05-01T14:36:12.869Z,50.875172
2023-05-01T14:37:12.835Z,50.875172
2023-05-01T14:38:12.840Z,50.875172
2023-05-01T14:39:12.778Z,50.875172
2023-05-01T14:40:12.808Z,50.875172
2023-05-01T14:41:12.778Z,50.875172
2023-05-01T14:42:12.807Z,50.875172
2023-05-01T14:43:12.795Z,50.875172
2023-05-01T14:44:12.767Z,50.875172
2023-05-01T14:45:12.763Z,50.875172
2023-05-01T14:46:12.841Z,50.875172
2023-05-01T14:47:12.752Z,50.875172
2023-05-01T14:48:12.782Z,50.875172
2023-05-01T14:49:12.705Z,50.875172
2023-05-01T14:50:12.680Z,50.875172
2023-05-01T14:51:12.784Z,50.875172
2023-05-01T14:52:12.717Z,50.875172
2023-05-01T14:53:12.677Z,50.875172
2023-05-01T14:54:12.688Z,50.875172
2023-05-01T14:55:12.636Z,50.875172
2023-05-01T14:56:12.672Z,50.875172
2023-05-01T14:57:12.637Z,50.875172
2023-05-01T14:58:12.651Z,50.875172
2023-05-01T14:59:12.654Z,50.875172
2023-05-01T15:00:12.610Z,50.875172
2023-05-01T15:01:12.620Z,50.875172
2023-05-01T15:02:12.769Z,50.875172
2023-05-01T15:03:12.692Z,50.875172
2023-05-01T15:04:12.739Z,50.875172
2023-05-01T15:05:12.577Z,50.875172
2023-05-01T15:06:12.711Z,50.875172
2023-05-01T15:07:12.589Z,50.875172
2023-05-01T15:08:12.597Z,50.875172
2023-05-01T15:09:12.565Z,50.875172
2023-05-01T15:10:12.563Z,50.875172
2023-05-01T15:11:12.538Z,50.875172
2023-05-01T15:12:12.554Z,50.875172
2023-05-01T15:13:12.528Z,50.875172
2023-05-01T15:14:12.484Z,50.875172
2023-05-01T15:15:12.463Z,50.875172
2023-05-01T15:16:12.473Z,50.875454
2023-05-01T15:17:12.484Z,50.875435
2023-05-01T15:18:12.516Z,50.875473
2023-05-01T15:19:12.472Z,50.875706
2023-05-01T15:20:12.445Z,50.875343
2023-05-01T15:21:12.438Z,50.875435
2023-05-01T15:22:12.455Z,50.875561
2023-05-01T15:23:12.448Z,50.875427
2023-05-01T15:24:12.436Z,50.875412
2023-05-01T15:25:12.388Z,50.875427
2023-05-01T15:26:12.367Z,50.875309
2023-05-01T15:27:12.357Z,50.875351
2023-05-01T15:28:12.396Z,50.875305
2023-05-01T15:29:12.370Z,50.875355
2023-05-01T15:30:12.355Z,50.875053
2023-05-01T15:31:12.385Z,50.875256
2023-05-01T15:32:13.021Z,50.875397
2023-05-01T15:33:15.385Z,50.875721
2023-05-01T15:34:12.310Z,50.875458
2023-05-01T15:35:12.318Z,50.875412
2023-05-01T15:36:12.302Z,50.875519
2023-05-01T15:37:12.312Z,50.875393
2023-05-01T15:38:12.290Z,50.875446
2023-05-01T15:39:12.254Z,50.875282
2023-05-01T15:40:12.270Z,50.875385
2023-05-01T15:41:12.259Z,50.875469
2023-05-01T15:42:12.229Z,50.875324
2023-05-01T15:43:12.236Z,50.875324
2023-05-01T15:44:12.230Z,50.875446
2023-05-01T15:45:12.169Z,50.875469
2023-05-01T15:46:12.243Z,50.875523
2023-05-01T15:47:12.309Z,50.875416
2023-05-01T15:48:12.370Z,50.875206
2023-05-01T15:49:12.164Z,50.875206
2023-05-01T15:50:12.162Z,50.875389
2023-05-01T15:51:12.150Z,50.875187
2023-05-01T15:52:12.141Z,50.875202
2023-05-01T15:53:12.136Z,50.875450
2023-05-01T15:54:12.134Z,50.875725
2023-05-01T15:55:12.090Z,50.875935
2023-05-01T15:56:12.078Z,50.875832
2023-05-01T15:57:12.072Z,50.875633
2023-05-01T15:58:12.079Z,50.875790
2023-05-01T15:59:12.093Z,50.875706
2023-05-01T16:00:12.033Z,50.875656
2023-05-01T16:01:12.138Z,50.875622
2023-05-01T16:02:12.087Z,50.875557
2023-05-01T16:03:12.078Z,50.875599
2023-05-01T16:04:12.071Z,50.875599
2023-05-01T16:05:11.989Z,50.875599
2023-05-01T16:06:12.013Z,50.875599
2023-05-01T16:07:11.968Z,50.875599
2023-05-01T16:08:11.955Z,50.875599
2023-05-01T16:09:11.950Z,50.875599
2023-05-01T16:10:11.961Z,50.875599
2023-05-01T16:11:11.939Z,50.875599
2023-05-01T16:12:11.967Z,50.875599
2023-05-01T16:13:11.937Z,50.875599
2023-05-01T16:14:11.912Z,50.875599
2023-05-01T16:15:11.894Z,50.875599
2023-05-01T16:16:11.988Z,50.875118
2023-05-01T16:17:11.938Z,50.875725
2023-05-01T16:18:11.963Z,50.875809
2023-05-01T16:19:11.836Z,50.875771
2023-05-01T16:20:11.853Z,50.875736
2023-05-01T16:21:11.851Z,50.875736
2023-05-01T16:22:11.824Z,50.875736
2023-05-01T16:23:11.832Z,50.875736
2023-05-01T16:24:11.829Z,50.875736
2023-05-01T16:25:11.803Z,50.875736
2023-05-01T16:26:11.914Z,50.875736
2023-05-01T16:27:11.795Z,50.875736
2023-05-01T16:28:11.826Z,50.875736
2023-05-01T16:29:11.760Z,50.875736
2023-05-01T16:30:11.744Z,50.875736
2023-05-01T16:31:26.265Z,50.875736
2023-05-01T16:32:13.792Z,50.875736
2023-05-01T16:33:11.787Z,50.875736
2023-05-01T16:34:11.696Z,50.875736
2023-05-01T16:35:11.715Z,50.875736
2023-05-01T16:36:11.695Z,50.875736
2023-05-01T16:37:11.696Z,50.875736
2023-05-01T16:38:11.650Z,50.875736
2023-05-01T16:39:13.669Z,50.875736
2023-05-01T16:40:16.732Z,50.875736
2023-05-01T16:41:11.656Z,50.875736
2023-05-01T16:42:11.606Z,50.875736
2023-05-01T16:43:11.624Z,50.875736
2023-05-01T16:44:11.601Z,50.875736
2023-05-01T16:45:11.630Z,50.875736
2023-05-01T16:46:11.619Z,50.875736
2023-05-01T16:47:11.574Z,50.875736
2023-05-01T16:48:11.652Z,50.875736
2023-05-01T16:49:11.574Z,50.875736
2023-05-01T16:50:11.589Z,50.875736
2023-05-01T16:51:11.574Z,50.875736
2023-05-01T16:52:11.523Z,50.875736
2023-05-01T16:53:11.549Z,50.875736
2023-05-01T16:54:11.515Z,50.875736
2023-05-01T16:55:11.521Z,50.875736
2023-05-01T16:56:11.526Z,50.875736
2023-05-01T16:57:11.535Z,50.875736
2023-05-01T16:58:11.499Z,50.875736
2023-05-01T16:59:11.526Z,50.875736
2023-05-01T17:00:11.455Z,50.875736
2023-05-01T17:01:11.524Z,50.875736
2023-05-01T17:02:11.621Z,50.875736
2023-05-01T17:03:11.475Z,50.875736
2023-05-01T17:04:11.451Z,50.875736
2023-05-01T17:05:11.426Z,50.875736
2023-05-01T17:06:11.430Z,50.875736
2023-05-01T17:07:11.393Z,50.875736
2023-05-01T17:08:11.499Z,50.875736
2023-05-01T17:09:11.392Z,50.875736
2023-05-01T17:10:11.358Z,50.875736
2023-05-01T17:11:11.381Z,50.875736
2023-05-01T17:12:11.362Z,50.875736
2023-05-01T17:13:11.403Z,50.875736
2023-05-01T17:14:11.348Z,50.875736
2023-05-01T17:15:11.308Z,50.875736
2023-05-01T17:16:11.334Z,50.875736
2023-05-01T17:17:11.303Z,50.875736
2023-05-01T17:18:11.315Z,50.875736
2023-05-01T17:19:11.272Z,50.875736
2023-05-01T17:20:11.215Z,50.875736
2023-05-01T17:21:11.197Z,50.875736
2023-05-01T17:22:11.189Z,50.875736
2023-05-01T17:23:11.201Z,50.875736
2023-05-01T17:24:11.158Z,50.875736
2023-05-01T17:25:11.147Z,50.875736
2023-05-01T17:26:11.138Z,50.875736
2023-05-01T17:27:11.123Z,50.875736
2023-05-01T17:28:11.135Z,50.875736
2023-05-01T17:29:11.112Z,50.875736
2023-05-01T17:30:11.115Z,50.875736
2023-05-01T17:31:11.090Z,50.875736
2023-05-01T17:32:11.127Z,50.875736
2023-05-01T17:33:11.142Z,50.875736
2023-05-01T17:34:12.033Z,50.875736
2023-05-01T17:35:11.064Z,50.875736
2023-05-01T17:36:11.048Z,50.875736
2023-05-01T17:37:11.038Z,50.875736
2023-05-01T17:38:11.036Z,50.875736
2023-05-01T17:39:11.020Z,50.875736
2023-05-01T17:40:11.039Z,50.875736
2023-05-01T17:41:11.000Z,50.875736
2023-05-01T17:42:10.988Z,50.875736
2023-05-01T17:43:11.062Z,50.875736
2023-05-01T17:44:10.964Z,50.875736
2023-05-01T17:45:10.973Z,50.875736
2023-05-01T17:46:11.123Z,50.875736
2023-05-01T17:47:10.943Z,50.875736
2023-05-01T17:48:10.987Z,50.875736
2023-05-01T17:49:10.927Z,50.875736
2023-05-01T17:50:10.921Z,50.875736
2023-05-01T17:51:10.901Z,50.875736
2023-05-01T17:52:10.897Z,50.875736
2023-05-01T17:53:10.893Z,50.875736
2023-05-01T17:54:10.871Z,50.875736
2023-05-01T17:55:11.515Z,50.875736
2023-05-01T17:56:10.886Z,50.875736
2023-05-01T17:57:11.832Z,50.875736
2023-05-01T17:58:10.840Z,50.875736
2023-05-01T17:59:10.817Z,50.875736
2023-05-01T18:00:10.851Z,50.875736
2023-05-01T18:01:10.941Z,50.875736
2023-05-01T18:02:10.906Z,50.875736
2023-05-01T18:03:10.868Z,50.875736
2023-05-01T18:04:10.944Z,50.875736
2023-05-01T18:05:10.765Z,50.875736
2023-05-01T18:06:10.785Z,50.875736
2023-05-01T18:07:10.730Z,50.875736
2023-05-01T18:08:10.745Z,50.875736
2023-05-01T18:09:10.721Z,50.875736
2023-05-01T18:10:10.712Z,50.875736
2023-05-01T18:11:10.694Z,50.875736
2023-05-01T18:12:10.676Z,50.875736
2023-05-01T18:13:10.694Z,50.875736
2023-05-01T18:14:10.667Z,50.875736
2023-05-01T18:15:10.699Z,50.875736
2023-05-01T18:16:10.701Z,50.875736
2023-05-01T18:17:10.670Z,50.875736
2023-05-01T18:18:10.781Z,50.875736
2023-05-01T18:19:10.603Z,50.875736
2023-05-01T18:20:10.617Z,50.875736
2023-05-01T18:21:10.601Z,50.875736
2023-05-01T18:22:10.607Z,50.875736
2023-05-01T18:23:10.578Z,50.875362
2023-05-01T18:24:10.561Z,50.875538
2023-05-01T18:25:10.552Z,50.875633
2023-05-01T18:26:10.543Z,50.875633
2023-05-01T18:27:10.543Z,50.875633
2023-05-01T18:28:10.538Z,50.875633
2023-05-01T18:29:10.507Z,50.875355
2023-05-01T18:30:10.502Z,50.875488
2023-05-01T18:31:10.522Z,50.875256
2023-05-01T18:32:12.788Z,50.875332
2023-05-01T18:33:10.500Z,50.875305
2023-05-01T18:34:10.474Z,50.875355
2023-05-01T18:35:10.471Z,50.875240
2023-05-01T18:36:10.471Z,50.875523
2023-05-01T18:37:10.433Z,50.875347
2023-05-01T18:38:10.452Z,50.875519
2023-05-01T18:39:10.419Z,50.875423
2023-05-01T18:40:10.405Z,50.875340
2023-05-01T18:41:10.388Z,50.875324
2023-05-01T18:42:10.394Z,50.875324
2023-05-01T18:43:10.384Z,50.875202
2023-05-01T18:44:10.359Z,50.875340
2023-05-01T18:45:10.379Z,50.875401
2023-05-01T18:46:10.365Z,50.875263
2023-05-01T18:47:10.329Z,50.875210
2023-05-01T18:48:10.347Z,50.875324
2023-05-01T18:49:10.331Z,50.875381
2023-05-01T18:50:10.309Z,50.875389
2023-05-01T18:51:10.290Z,50.875458